createdAt,value
2022-10-11T00:01:19.047Z,99748.28
2022-10-11T00:03:45.613Z,99751.13
2022-10-11T00:06:12.245Z,99759.34
2022-10-11T00:08:38.810Z,99745.31
2022-10-11T00:11:07.617Z,99755.03
2022-10-11T00:13:34.723Z,99762.69
2022-10-11T00:16:01.575Z,99762.91
2022-10-11T00:18:28.251Z,99762.50
2022-10-11T00:21:07.979Z,99756.97
2022-10-11T00:23:35.226Z,99753.66
2022-10-11T00:26:04.897Z,99753.84
2022-10-11T00:28:31.906Z,99752.81
2022-10-11T00:30:58.557Z,99750.34
2022-10-11T00:33:25.225Z,99748.94
2022-10-11T00:35:51.814Z,99749.31
2022-10-11T00:38:18.514Z,99747.63
2022-10-11T00:40:45.715Z,99748.44
2022-10-11T00:43:17.240Z,99752.78
2022-10-11T00:46:00.395Z,99748.00
2022-10-11T00:48:40.392Z,99755.66
2022-10-11T00:51:19.489Z,99747.84
2022-10-11T00:53:47.912Z,99753.44
2022-10-11T00:56:22.470Z,99758.97
2022-10-11T00:58:49.809Z,99763.09
2022-10-11T01:01:16.449Z,99764.31
2022-10-11T01:03:44.293Z,99760.81
2022-10-11T01:06:10.971Z,99764.69
2022-10-11T01:08:38.185Z,99759.09
2022-10-11T01:11:05.267Z,99763.66
2022-10-11T01:13:39.093Z,99760.34
2022-10-11T01:16:17.917Z,99761.75
2022-10-11T01:18:44.440Z,99770.16
2022-10-11T01:21:10.967Z,99767.06
2022-10-11T01:24:16.209Z,99773.03
2022-10-11T01:26:51.798Z,99767.44
2022-10-11T01:29:55.914Z,99771.13
2022-10-11T01:32:28.641Z,99773.53
2022-10-11T01:35:24.143Z,99764.28
2022-10-11T01:38:01.889Z,99770.41
2022-10-11T01:40:35.217Z,99766.69
2022-10-11T01:43:02.081Z,99761.00
2022-10-11T01:45:29.090Z,99766.34
2022-10-11T01:48:03.205Z,99764.28
2022-10-11T01:50:40.929Z,99767.34
2022-10-11T01:53:21.522Z,99772.31
2022-10-11T01:55:57.365Z,99782.38
2022-10-11T01:58:52.946Z,99781.53
2022-10-11T02:01:40.957Z,99787.25
2022-10-11T02:04:17.077Z,99782.56
2022-10-11T02:07:15.107Z,99789.34
2022-10-11T02:09:53.729Z,99795.53
2022-10-11T02:12:28.049Z,99787.91
2022-10-11T02:14:56.493Z,99792.47
2022-10-11T02:17:27.615Z,99790.16
2022-10-11T02:19:57.209Z,99787.84
2022-10-11T02:22:28.151Z,99789.72
2022-10-11T02:24:56.909Z,99785.16
2022-10-11T02:27:26.793Z,99786.38
2022-10-11T02:29:54.749Z,99790.13
2022-10-11T02:32:23.692Z,99777.75
2022-10-11T02:34:58.446Z,99784.50
2022-10-11T02:37:32.926Z,99782.66
2022-10-11T02:40:03.989Z,99778.13
2022-10-11T02:42:34.013Z,99781.28
2022-10-11T02:45:04.733Z,99780.28
2022-10-11T02:47:32.129Z,99782.94
2022-10-11T02:49:59.757Z,99801.88
2022-10-11T02:52:26.768Z,99795.31
2022-10-11T02:54:53.337Z,99789.72
2022-10-11T02:57:19.909Z,99798.19
2022-10-11T02:59:46.434Z,99797.63
2022-10-11T03:02:13.126Z,99800.50
2022-10-11T03:04:39.653Z,99813.13
2022-10-11T03:07:06.196Z,99812.53
2022-10-11T03:09:32.751Z,99816.44
2022-10-11T03:11:59.282Z,99810.28
2022-10-11T03:14:26.911Z,99813.59
2022-10-11T03:16:53.466Z,99809.06
2022-10-11T03:19:20.037Z,99814.88
2022-10-11T03:21:46.808Z,99813.59
2022-10-11T03:24:13.433Z,99817.09
2022-10-11T03:26:39.997Z,99823.09
2022-10-11T03:29:06.518Z,99828.28
2022-10-11T03:31:33.053Z,99823.94
2022-10-11T03:33:59.590Z,99824.38
2022-10-11T03:36:26.104Z,99823.94
2022-10-11T03:38:52.710Z,99826.03
2022-10-11T03:41:19.242Z,99828.13
2022-10-11T03:43:45.780Z,99831.88
2022-10-11T03:46:12.406Z,99837.00
2022-10-11T03:48:38.991Z,99830.41
2022-10-11T03:51:05.669Z,99835.56
2022-10-11T03:53:32.209Z,99835.00
2022-10-11T03:55:58.726Z,99833.38
2022-10-11T03:58:25.315Z,99841.59
2022-10-11T04:00:52.769Z,99838.09
2022-10-11T04:03:19.403Z,99840.84
2022-10-11T04:05:45.926Z,99842.31
2022-10-11T04:08:12.590Z,99846.19
2022-10-11T04:10:40.074Z,99842.91
2022-10-11T04:13:07.387Z,99837.91
2022-10-11T04:15:33.991Z,99835.88
2022-10-11T04:18:00.563Z,99832.81
2022-10-11T04:20:27.116Z,99830.75
2022-10-11T04:22:53.657Z,99827.47
2022-10-11T04:25:20.206Z,99833.84
2022-10-11T04:27:46.739Z,99836.13
2022-10-11T04:30:13.623Z,99832.81
2022-10-11T04:32:40.181Z,99835.28
2022-10-11T04:35:06.962Z,99840.00
2022-10-11T04:37:33.490Z,99833.22
2022-10-11T04:40:00.132Z,99830.38
2022-10-11T04:42:26.678Z,99836.72
2022-10-11T04:44:53.197Z,99830.38
2022-10-11T04:47:19.736Z,99839.00
2022-10-11T04:49:46.258Z,99841.88
2022-10-11T04:52:12.848Z,99846.84
2022-10-11T04:54:39.438Z,99849.72
2022-10-11T04:57:06.072Z,99844.16
2022-10-11T04:59:32.634Z,99846.66
2022-10-11T05:01:59.204Z,99852.22
2022-10-11T05:04:25.794Z,99850.34
2022-10-11T05:06:52.369Z,99857.16
2022-10-11T05:09:19.174Z,99860.44
2022-10-11T05:11:45.734Z,99848.31
2022-10-11T05:14:12.254Z,99854.47
2022-10-11T05:16:38.798Z,99854.25
2022-10-11T05:19:05.400Z,99862.09
2022-10-11T05:21:32.070Z,99857.56
2022-10-11T05:23:58.643Z,99867.25
2022-10-11T05:26:27.392Z,99863.31
2022-10-11T05:28:55.109Z,99871.34
2022-10-11T05:31:21.846Z,99865.59
2022-10-11T05:33:48.482Z,99874.44
2022-10-11T05:36:15.216Z,99880.84
2022-10-11T05:38:41.833Z,99886.41
2022-10-11T05:41:11.665Z,99890.09
2022-10-11T05:43:38.179Z,99885.56
2022-10-11T05:46:05.941Z,99892.50
2022-10-11T05:48:32.719Z,99893.31
2022-10-11T05:51:05.237Z,99900.28
2022-10-11T05:53:32.490Z,99908.03
2022-10-11T05:55:59.652Z,99907.38
2022-10-11T05:58:26.472Z,99909.16
2022-10-11T06:00:53.388Z,99905.59
2022-10-11T06:03:21.119Z,99921.41
2022-10-11T06:05:47.851Z,99911.88
2022-10-11T06:08:14.916Z,99918.97
2022-10-11T06:10:41.872Z,99922.25
2022-10-11T06:13:09.633Z,99924.72
2022-10-11T06:15:38.986Z,99924.50
2022-10-11T06:18:05.622Z,99929.75
2022-10-11T06:20:32.280Z,99939.22
2022-10-11T06:22:59.190Z,99935.88
2022-10-11T06:25:25.764Z,99941.41
2022-10-11T06:27:52.350Z,99941.56
2022-10-11T06:30:19.018Z,99948.91
2022-10-11T06:32:45.610Z,99957.25
2022-10-11T06:35:12.306Z,99961.09
2022-10-11T06:37:38.890Z,99965.72
2022-10-11T06:40:06.007Z,99969.75
2022-10-11T06:42:32.623Z,99967.44
2022-10-11T06:44:59.253Z,99975.44
2022-10-11T06:47:25.914Z,99972.22
2022-10-11T06:49:52.580Z,99960.06
2022-10-11T06:52:19.399Z,99971.31
2022-10-11T06:54:46.009Z,99967.75
2022-10-11T06:57:12.698Z,99976.13
2022-10-11T06:59:39.372Z,99979.47
2022-10-11T07:02:06.933Z,99984.84
2022-10-11T07:04:33.986Z,99973.31
2022-10-11T07:07:00.883Z,99981.09
2022-10-11T07:09:27.515Z,99976.38
2022-10-11T07:11:54.078Z,99978.91
2022-10-11T07:14:20.694Z,99979.94
2022-10-11T07:16:47.302Z,99975.03
2022-10-11T07:19:13.958Z,99980.78
2022-10-11T07:21:40.645Z,99986.16
2022-10-11T07:24:07.513Z,99987.50
2022-10-11T07:26:38.603Z,99987.84
2022-10-11T07:29:07.614Z,99989.16
2022-10-11T07:31:34.207Z,99996.03
2022-10-11T07:34:00.931Z,99999.72
2022-10-11T07:36:27.643Z,99996.56
2022-10-11T07:38:55.340Z,100000.50
2022-10-11T07:41:22.022Z,100004.16
2022-10-11T07:43:49.791Z,100002.41
2022-10-11T07:46:17.406Z,100005.19
2022-10-11T07:48:44.060Z,100004.19
2022-10-11T07:51:12.104Z,99999.28
2022-10-11T07:53:43.144Z,100003.41
2022-10-11T07:56:12.541Z,100001.28
2022-10-11T07:58:40.224Z,100001.41
2022-10-11T08:01:07.499Z,100005.97
2022-10-11T08:03:34.146Z,100008.66
2022-10-11T08:06:06.158Z,100011.38
2022-10-11T08:08:33.134Z,99998.50
2022-10-11T08:10:59.851Z,100003.44
2022-10-11T08:13:27.125Z,100010.69
2022-10-11T08:15:53.984Z,100001.13
2022-10-11T08:18:20.677Z,100003.81
2022-10-11T08:20:47.446Z,100008.91
2022-10-11T08:23:14.101Z,100012.44
2022-10-11T08:25:44.578Z,100018.72
2022-10-11T08:28:16.597Z,100020.03
2022-10-11T08:30:50.756Z,100020.16
2022-10-11T08:33:18.510Z,100023.13
2022-10-11T08:35:45.186Z,100026.19
2022-10-11T08:38:11.930Z,100030.41
2022-10-11T08:40:38.932Z,100022.56
2022-10-11T08:43:32.126Z,100027.66
2022-10-11T08:46:01.173Z,100028.94
2022-10-11T08:48:46.359Z,100020.44
2022-10-11T08:51:30.670Z,100025.25
2022-10-11T08:54:38.833Z,100022.50
2022-10-11T08:57:06.550Z,100027.69
2022-10-11T08:59:41.766Z,100032.59
2022-10-11T09:02:35.137Z,100034.81
2022-10-11T09:05:18.110Z,100036.75
2022-10-11T09:08:06.194Z,100030.22
2022-10-11T09:11:05.589Z,100035.13
2022-10-11T09:13:53.430Z,100037.59
2022-10-11T09:16:35.023Z,100032.25
2022-10-11T09:19:16.813Z,100037.06
2022-10-11T09:21:51.542Z,100033.19
2022-10-11T09:24:47.365Z,100040.97
2022-10-11T09:27:29.130Z,100040.38
2022-10-11T09:30:17.261Z,100041.09
2022-10-11T09:32:46.792Z,100027.72
2022-10-11T09:35:22.511Z,100029.31
2022-10-11T09:38:05.500Z,100030.16
2022-10-11T09:40:43.446Z,100029.84
2022-10-11T09:43:10.580Z,100026.03
2022-10-11T09:45:37.342Z,100024.97
2022-10-11T09:48:05.899Z,100027.44
2022-10-11T09:50:32.990Z,100023.53
2022-10-11T09:53:03.573Z,100026.28
2022-10-11T09:55:52.494Z,100024.63
2022-10-11T09:58:35.983Z,100019.41
2022-10-11T10:01:07.875Z,100019.03
2022-10-11T10:03:40.625Z,100027.69
2022-10-11T10:06:25.296Z,100017.81
2022-10-11T10:08:52.187Z,100021.41
2022-10-11T10:11:19.412Z,100025.69
2022-10-11T10:13:47.155Z,100024.13
2022-10-11T10:16:31.574Z,100015.25
2022-10-11T10:19:03.522Z,100024.81
2022-10-11T10:21:36.654Z,100021.84
2022-10-11T10:24:12.012Z,100017.03
2022-10-11T10:26:39.989Z,100020.56
2022-10-11T10:29:09.532Z,100021.59
2022-10-11T10:31:55.273Z,100015.13
2022-10-11T10:34:28.772Z,100006.97
2022-10-11T10:37:11.822Z,100012.72
2022-10-11T10:39:57.288Z,100013.81
2022-10-11T10:42:23.963Z,100007.03
2022-10-11T10:44:53.356Z,100016.00
2022-10-11T10:47:28.714Z,100009.75
2022-10-11T10:50:08.404Z,100019.00
2022-10-11T10:52:48.713Z,100010.53
2022-10-11T10:55:30.508Z,100010.03
2022-10-11T10:58:22.032Z,100014.06
2022-10-11T11:00:51.022Z,100003.16
2022-10-11T11:03:42.672Z,100001.03
2022-10-11T11:06:21.788Z,100008.13
2022-10-11T11:09:00.164Z,100005.41
2022-10-11T11:11:33.502Z,100006.22
2022-10-11T11:14:15.820Z,100001.03
2022-10-11T11:16:57.912Z,100000.75
2022-10-11T11:19:58.370Z,100005.13
2022-10-11T11:22:50.002Z,100008.88
2022-10-11T11:25:44.980Z,99997.22
2022-10-11T11:28:30.314Z,99999.34
2022-10-11T11:31:26.486Z,99992.22
2022-10-11T11:34:10.731Z,99994.91
2022-10-11T11:37:06.931Z,99998.53
2022-10-11T11:40:07.134Z,99984.63
2022-10-11T11:42:40.947Z,99988.44
2022-10-11T11:45:28.102Z,99992.78
2022-10-11T11:48:07.066Z,99979.81
2022-10-11T11:50:40.011Z,99976.69
2022-10-11T11:53:13.790Z,99982.97
2022-10-11T11:55:49.391Z,99977.03
2022-10-11T11:58:31.088Z,99969.16
2022-10-11T12:01:21.532Z,99971.88
2022-10-11T12:03:50.756Z,99977.59
2022-10-11T12:06:21.122Z,99971.53
2022-10-11T12:09:15.454Z,99967.75
2022-10-11T12:12:00.031Z,99966.88
2022-10-11T12:14:35.657Z,99968.25
2022-10-11T12:17:23.755Z,99960.34
2022-10-11T12:20:08.624Z,99965.53
2022-10-11T12:22:35.183Z,99966.63
2022-10-11T12:25:22.015Z,99963.28
2022-10-11T12:27:53.946Z,99963.03
2022-10-11T12:30:48.175Z,99959.19
2022-10-11T12:33:24.550Z,99962.00
2022-10-11T12:35:54.245Z,99967.25
2022-10-11T12:38:31.390Z,99969.19
2022-10-11T12:41:08.637Z,99959.09
2022-10-11T12:44:07.653Z,99960.91
2022-10-11T12:46:41.485Z,99954.31
2022-10-11T12:49:23.993Z,99952.75
2022-10-11T12:52:06.977Z,99953.50
2022-10-11T12:55:04.648Z,99964.09
2022-10-11T12:58:01.256Z,99960.50
2022-10-11T13:00:31.121Z,99954.78
2022-10-11T13:02:59.743Z,99957.78
2022-10-11T13:05:27.704Z,99959.69
2022-10-11T13:07:56.034Z,99958.59
2022-10-11T13:10:36.917Z,99959.44
2022-10-11T13:13:09.978Z,99954.22
2022-10-11T13:15:36.565Z,99950.19
2022-10-11T13:18:03.183Z,99956.38
2022-10-11T13:20:32.220Z,99946.94
2022-10-11T13:22:58.910Z,99958.84
2022-10-11T13:25:29.407Z,99960.75
2022-10-11T13:27:58.518Z,99959.91
2022-10-11T13:30:28.873Z,99954.44
2022-10-11T13:32:55.632Z,99959.56
2022-10-11T13:35:38.388Z,99959.66
2022-10-11T13:38:08.133Z,99955.81
2022-10-11T13:40:35.709Z,99962.94
2022-10-11T13:43:02.583Z,99951.50
2022-10-11T13:45:32.268Z,99952.00
2022-10-11T13:47:58.963Z,99955.25
2022-10-11T13:50:32.238Z,99954.22
2022-10-11T13:53:02.287Z,99960.75
2022-10-11T13:55:47.141Z,99965.13
2022-10-11T13:58:20.699Z,99946.06
2022-10-11T14:00:56.481Z,99950.91
2022-10-11T14:03:24.820Z,99953.97
2022-10-11T14:05:59.027Z,99960.47
2022-10-11T14:08:25.712Z,99959.63
2022-10-11T14:10:56.763Z,99961.25
2022-10-11T14:13:25.823Z,99945.00
2022-10-11T14:16:04.432Z,99956.69
2022-10-11T14:18:36.905Z,99954.81
2022-10-11T14:21:46.997Z,99963.22
2022-10-11T14:24:14.593Z,99961.59
2022-10-11T14:26:52.251Z,99952.34
2022-10-11T14:29:35.089Z,99955.09
2022-10-11T14:32:04.733Z,99966.75
2022-10-11T14:34:31.589Z,99962.69
2022-10-11T14:36:58.206Z,99962.69
2022-10-11T14:39:26.297Z,99957.81
2022-10-11T14:41:53.269Z,99968.13
2022-10-11T14:44:21.097Z,99967.31
2022-10-11T14:46:48.901Z,99965.06
2022-10-11T14:49:25.250Z,99973.00
2022-10-11T14:51:53.054Z,99964.59
2022-10-11T14:54:22.645Z,99967.50
2022-10-11T14:56:53.881Z,99965.63
2022-10-11T14:59:22.602Z,99965.69
2022-10-11T15:01:54.016Z,99963.78
2022-10-11T15:04:21.729Z,99967.03
2022-10-11T15:06:48.888Z,99967.59
2022-10-11T15:09:17.078Z,99973.84
2022-10-11T15:11:43.804Z,99964.53
2022-10-11T15:14:10.464Z,99965.03
2022-10-11T15:16:37.086Z,99968.78
2022-10-11T15:19:03.908Z,99960.34
2022-10-11T15:21:30.645Z,99972.81
2022-10-11T15:23:57.218Z,99974.59
2022-10-11T15:26:28.712Z,99971.75
2022-10-11T15:28:56.989Z,99973.47
2022-10-11T15:31:23.801Z,99971.97
2022-10-11T15:33:50.455Z,99981.16
2022-10-11T15:36:19.433Z,99983.31
2022-10-11T15:38:46.479Z,99983.78
2022-10-11T15:41:15.613Z,99983.50
2022-10-11T15:43:43.809Z,99981.59
2022-10-11T15:46:17.429Z,99978.81
2022-10-11T15:48:45.067Z,99978.38
2022-10-11T15:51:11.713Z,99985.41
2022-10-11T15:53:38.353Z,99985.41
2022-10-11T15:56:07.810Z,99985.69
2022-10-11T15:58:36.878Z,99989.34
2022-10-11T16:01:06.799Z,99996.81
2022-10-11T16:03:34.089Z,99997.66
2022-10-11T16:06:04.816Z,99998.59
2022-10-11T16:08:33.659Z,100003.28
2022-10-11T16:11:00.823Z,100004.34
2022-10-11T16:13:27.446Z,100003.63
2022-10-11T16:15:54.089Z,100007.66
2022-10-11T16:18:22.158Z,100011.13
2022-10-11T16:20:51.346Z,100008.84
2022-10-11T16:23:19.814Z,100018.53
2022-10-11T16:25:46.473Z,100011.34
2022-10-11T16:28:13.119Z,100011.59
2022-10-11T16:30:43.135Z,100015.75
2022-10-11T16:33:09.993Z,100021.00
2022-10-11T16:35:40.511Z,100028.22
2022-10-11T16:38:07.093Z,100029.97
2022-10-11T16:40:35.740Z,100037.41
2022-10-11T16:43:07.349Z,100034.63
2022-10-11T16:45:35.032Z,100035.03
2022-10-11T16:48:02.018Z,100038.72
2022-10-11T16:50:29.107Z,100034.53
2022-10-11T16:52:55.898Z,100023.88
2022-10-11T16:55:23.085Z,100028.97
2022-10-11T16:57:49.634Z,100025.25
2022-10-11T17:00:16.563Z,100036.31
2022-10-11T17:02:43.129Z,100035.19
2022-10-11T17:05:09.656Z,100035.31
2022-10-11T17:07:36.270Z,100041.53
2022-10-11T17:10:02.915Z,100042.84
2022-10-11T17:12:29.771Z,100048.16
2022-10-11T17:14:56.546Z,100052.72
2022-10-11T17:17:23.253Z,100047.59
2022-10-11T17:19:50.148Z,100048.66
2022-10-11T17:22:19.266Z,100060.50
2022-10-11T17:24:46.216Z,100053.34
2022-10-11T17:27:13.142Z,100051.13
2022-10-11T17:29:39.771Z,100065.69
2022-10-11T17:32:06.728Z,100065.66
2022-10-11T17:34:33.647Z,100056.06
2022-10-11T17:37:00.205Z,100058.19
2022-10-11T17:39:26.811Z,100060.53
2022-10-11T17:41:53.417Z,100057.81
2022-10-11T17:44:21.621Z,100060.28
2022-10-11T17:46:48.309Z,100062.28
2022-10-11T17:49:15.035Z,100064.53
2022-10-11T17:51:42.003Z,100065.78
2022-10-11T17:54:12.790Z,100066.50
2022-10-11T17:56:40.949Z,100077.78
2022-10-11T17:59:08.820Z,100080.72
2022-10-11T18:01:36.114Z,100074.41
2022-10-11T18:04:04.272Z,100075.59
2022-10-11T18:06:33.067Z,100069.75
2022-10-11T18:09:01.265Z,100075.84
2022-10-11T18:11:27.935Z,100081.25
2022-10-11T18:13:54.592Z,100081.38
2022-10-11T18:16:23.263Z,100087.81
2022-10-11T18:18:50.216Z,100086.16
2022-10-11T18:21:18.703Z,100093.09
2022-10-11T18:23:45.620Z,100083.63
2022-10-11T18:26:20.166Z,100094.19
2022-10-11T18:28:47.861Z,100091.09
2022-10-11T18:31:17.475Z,100092.41
2022-10-11T18:33:45.979Z,100091.59
2022-10-11T18:36:14.521Z,100095.22
2022-10-11T18:38:46.126Z,100092.16
2022-10-11T18:41:14.647Z,100094.88
2022-10-11T18:43:41.361Z,100091.84
2022-10-11T18:46:10.621Z,100097.44
2022-10-11T18:48:43.113Z,100091.94
2022-10-11T18:51:12.722Z,100091.94
2022-10-11T18:53:39.307Z,100083.84
2022-10-11T18:56:08.010Z,100093.81
2022-10-11T18:58:35.982Z,100089.25
2022-10-11T19:01:20.545Z,100085.72
2022-10-11T19:03:49.435Z,100091.38
2022-10-11T19:06:18.589Z,100091.38
2022-10-11T19:08:55.942Z,100084.31
2022-10-11T19:11:25.212Z,100089.50
2022-10-11T19:13:59.818Z,100088.53
2022-10-11T19:16:27.990Z,100095.22
2022-10-11T19:18:54.565Z,100089.00
2022-10-11T19:21:21.719Z,100093.69
2022-10-11T19:23:49.220Z,100095.47
2022-10-11T19:26:24.305Z,100089.13
2022-10-11T19:29:05.263Z,100085.13
2022-10-11T19:31:33.241Z,100093.47
2022-10-11T19:33:59.947Z,100091.94
2022-10-11T19:36:28.401Z,100097.34
2022-10-11T19:38:56.887Z,100091.81
2022-10-11T19:41:24.555Z,100100.25
2022-10-11T19:43:51.587Z,100084.97
2022-10-11T19:46:37.820Z,100096.34
2022-10-11T19:49:08.107Z,100100.72
2022-10-11T19:51:35.195Z,100096.94
2022-10-11T19:54:04.895Z,100093.88
2022-10-11T19:56:32.646Z,100100.91
2022-10-11T19:58:59.878Z,100104.66
2022-10-11T20:01:29.192Z,100100.31
2022-10-11T20:03:57.826Z,100102.22
2022-10-11T20:06:25.830Z,100097.28
2022-10-11T20:09:10.398Z,100099.84
2022-10-11T20:11:39.192Z,100105.47
2022-10-11T20:14:06.103Z,100104.53
2022-10-11T20:16:32.726Z,100108.75
2022-10-11T20:18:59.412Z,100100.88
2022-10-11T20:21:27.939Z,100103.78
2022-10-11T20:23:58.722Z,100107.09
2022-10-11T20:26:26.802Z,100104.19
2022-10-11T20:28:56.028Z,100104.03
2022-10-11T20:31:28.542Z,100110.25
2022-10-11T20:33:57.347Z,100108.84
2022-10-11T20:36:26.013Z,100115.88
2022-10-11T20:38:52.682Z,100117.97
2022-10-11T20:41:22.224Z,100117.59
2022-10-11T20:43:52.086Z,100106.47
2022-10-11T20:46:21.390Z,100106.91
2022-10-11T20:48:58.894Z,100119.94
2022-10-11T20:51:28.822Z,100110.56
2022-10-11T20:53:56.393Z,100110.81
2022-10-11T20:56:23.293Z,100108.56
2022-10-11T20:58:54.254Z,100111.50
2022-10-11T21:01:23.262Z,100100.34
2022-10-11T21:03:50.447Z,100112.31
2022-10-11T21:06:17.026Z,100113.13
2022-10-11T21:08:43.654Z,100110.91
2022-10-11T21:11:10.985Z,100115.59
2022-10-11T21:13:38.191Z,100112.09
2022-10-11T21:16:11.183Z,100112.69
2022-10-11T21:18:38.135Z,100105.88
2022-10-11T21:21:06.777Z,100106.13
2022-10-11T21:23:33.648Z,100116.44
2022-10-11T21:26:04.930Z,100118.06
2022-10-11T21:28:31.719Z,100112.09
2022-10-11T21:31:05.112Z,100115.81
2022-10-11T21:33:31.806Z,100111.13
2022-10-11T21:35:58.407Z,100114.41
2022-10-11T21:38:25.013Z,100116.50
2022-10-11T21:40:51.898Z,100116.28
2022-10-11T21:43:18.516Z,100119.81
2022-10-11T21:45:45.866Z,100113.59
2022-10-11T21:48:12.573Z,100114.63
2022-10-11T21:50:39.332Z,100111.81
2022-10-11T21:53:05.982Z,100113.66
2022-10-11T21:55:32.561Z,100122.19
2022-10-11T21:57:59.415Z,100116.56
2022-10-11T22:00:25.958Z,100111.72
2022-10-11T22:02:52.615Z,100116.88
2022-10-11T22:05:19.221Z,100112.88
2022-10-11T22:07:45.786Z,100117.06
2022-10-11T22:10:12.393Z,100116.25
2022-10-11T22:12:38.939Z,100116.56
2022-10-11T22:15:06.076Z,100109.38
2022-10-11T22:17:32.665Z,100108.63
2022-10-11T22:19:59.250Z,100109.09
2022-10-11T22:22:26.228Z,100106.47
2022-10-11T22:24:52.797Z,100108.13
2022-10-11T22:27:19.436Z,100104.00
2022-10-11T22:29:45.995Z,100108.44
2022-10-11T22:32:12.582Z,100109.16
2022-10-11T22:34:39.142Z,100100.16
2022-10-11T22:37:05.689Z,100112.50
2022-10-11T22:39:32.245Z,100104.91
2022-10-11T22:41:59.122Z,100109.63
2022-10-11T22:44:25.701Z,100106.72
2022-10-11T22:46:52.272Z,100113.06
2022-10-11T22:49:18.850Z,100112.59
2022-10-11T22:51:45.473Z,100107.69
2022-10-11T22:54:12.155Z,100108.47
2022-10-11T22:56:38.747Z,100108.94
2022-10-11T22:59:05.383Z,100107.84
2022-10-11T23:01:32.140Z,100117.16
2022-10-11T23:03:58.768Z,100110.38
2022-10-11T23:06:25.391Z,100108.34
2022-10-11T23:08:51.951Z,100112.09
2022-10-11T23:11:18.542Z,100112.66
2022-10-11T23:13:45.081Z,100110.44
2022-10-11T23:16:13.075Z,100113.06
2022-10-11T23:18:40.045Z,100113.06
2022-10-11T23:21:07.488Z,100115.16
2022-10-11T23:23:34.244Z,100120.31
2022-10-11T23:26:05.460Z,100122.25
2022-10-11T23:28:32.202Z,100130.31
2022-10-11T23:30:58.872Z,100125.19
2022-10-11T23:33:25.542Z,100121.88
2022-10-11T23:35:52.137Z,100137.81
2022-10-11T23:38:18.711Z,100134.72
2022-10-11T23:40:45.253Z,100132.66
2022-10-11T23:43:11.800Z,100133.56
2022-10-11T23:45:38.651Z,100136.47
2022-10-11T23:48:05.205Z,100134.09
2022-10-11T23:50:31.714Z,100142.00
2022-10-11T23:52:58.269Z,100145.09
2022-10-11T23:55:24.861Z,100139.66
2022-10-11T23:57:51.457Z,100134.28
